Time;durP1;ratioP1;P1;durP2;ratioP2;P2;SDS_P1;SDS_P2;PMS_P1;PMS_P2;Temp;Humidity;BMP_temperature;BMP_pressure;BME280_temperature;BME280_humidity;BME280_pressure;Samples;Min_cycle;Max_cycle;Signal;HPM_P1;HPM_P2
2021/05/11 00:00:56;;;;;;;3.60;2.00;;;15.50;99.90;;;;;;5072148;28;20174;-78
2021/05/11 00:03:22;;;;;;;2.20;1.70;;;15.50;99.90;;;;;;5061320;28;20218;-78
2021/05/11 00:05:48;;;;;;;2.40;2.00;;;15.40;99.90;;;;;;5049099;28;20227;-79
2021/05/11 00:08:13;;;;;;;3.10;1.90;;;15.50;99.90;;;;;;5051543;28;20257;-77
2021/05/11 00:10:39;;;;;;;2.83;1.70;;;15.50;99.90;;;;;;5055214;28;20198;-78
2021/05/11 00:13:04;;;;;;;4.40;2.03;;;15.50;99.90;;;;;;5046527;28;20232;-78
2021/05/11 00:15:30;;;;;;;2.03;1.73;;;15.40;99.90;;;;;;5064723;28;20195;-79
2021/05/11 00:17:56;;;;;;;1.67;1.57;;;15.40;99.90;;;;;;5080622;28;20203;-78
2021/05/11 00:20:21;;;;;;;1.70;1.60;;;15.30;99.90;;;;;;5052136;28;20203;-77
2021/05/11 00:22:48;;;;;;;2.67;2.37;;;15.20;99.90;;;;;;5052208;28;20253;-77
2021/05/11 00:25:14;;;;;;;2.77;2.57;;;15.20;99.90;;;;;;5039511;28;20296;-77
2021/05/11 00:27:41;;;;;;;7.80;2.50;;;15.20;99.90;;;;;;5058967;28;20465;-77
2021/05/11 00:30:08;;;;;;;4.50;2.90;;;15.20;99.90;;;;;;5033919;28;20218;-79
2021/05/11 00:32:33;;;;;;;2.77;2.50;;;15.20;99.90;;;;;;5056692;28;20432;-78
2021/05/11 00:34:59;;;;;;;5.80;3.00;;;15.30;99.90;;;;;;5073855;28;20424;-78
2021/05/11 00:37:24;;;;;;;3.23;2.90;;;15.30;99.90;;;;;;5055399;28;20178;-78
2021/05/11 00:39:50;;;;;;;5.00;3.97;;;15.50;99.90;;;;;;5071895;28;20166;-77
2021/05/11 00:42:16;;;;;;;3.63;3.33;;;15.60;99.90;;;;;;5063826;28;20194;-78
2021/05/11 00:44:41;;;;;;;5.07;3.40;;;15.70;99.90;;;;;;5051400;28;20198;-78
2021/05/11 00:47:07;;;;;;;8.20;3.47;;;15.60;99.90;;;;;;5069083;28;20248;-78
2021/05/11 00:49:34;;;;;;;3.47;3.17;;;15.70;99.90;;;;;;5061307;28;20202;-77
2021/05/11 00:52:03;;;;;;;3.90;3.47;;;15.80;99.90;;;;;;5038099;28;20223;-77
2021/05/11 00:54:29;;;;;;;5.13;3.73;;;15.80;99.90;;;;;;5071391;28;20452;-78
2021/05/11 00:56:55;;;;;;;4.10;3.57;;;15.70;99.90;;;;;;5064299;28;20780;-78
2021/05/11 00:59:26;;;;;;;3.80;3.50;;;15.80;99.90;;;;;;5062762;28;20189;-78
2021/05/11 01:01:53;;;;;;;4.43;4.00;;;15.80;99.90;;;;;;5043794;28;20441;-77
2021/05/11 01:04:20;;;;;;;4.30;3.40;;;15.90;99.90;;;;;;5045217;28;20483;-78
2021/05/11 01:06:46;;;;;;;3.50;3.10;;;15.90;99.90;;;;;;5068305;28;20921;-78
2021/05/11 01:09:12;;;;;;;2.97;2.57;;;15.90;99.90;;;;;;5070545;28;20502;-77
2021/05/11 01:11:38;;;;;;;4.83;2.70;;;15.90;99.90;;;;;;5062942;28;20200;-77
2021/05/11 01:14:05;;;;;;;4.70;3.80;;;15.90;99.90;;;;;;5067383;28;20174;-77
2021/05/11 01:16:32;;;;;;;3.33;2.97;;;15.90;99.90;;;;;;5041511;28;20431;-77
2021/05/11 01:19:06;;;;;;;2.93;2.70;;;16.00;99.90;;;;;;5058030;28;20523;-77
2021/05/11 01:24:04;;;;;;;2.93;2.73;;;16.00;99.90;;;;;;5077718;28;20447;-77
2021/05/11 01:45:32;;;;;;;7.23;4.80;;;15.90;99.90;;;;;;5065509;28;20455;-77
2021/05/11 01:48:08;;;;;;;5.97;4.77;;;15.90;99.90;;;;;;5063570;28;20439;-77
2021/05/11 02:22:59;;;;;;;9.30;8.50;;;15.80;99.90;;;;;;5059150;28;20420;-77
2021/05/11 02:25:25;;;;;;;9.83;8.83;;;15.80;99.90;;;;;;5058879;28;20514;-78
2021/05/11 02:27:51;;;;;;;8.90;7.50;;;15.80;99.90;;;;;;5055580;28;20635;-77
2021/05/11 02:30:17;;;;;;;9.30;8.50;;;15.90;99.90;;;;;;5057970;28;20186;-78
2021/05/11 02:32:43;;;;;;;8.87;7.97;;;15.90;99.90;;;;;;5072321;28;20490;-78
2021/05/11 02:35:10;;;;;;;8.17;7.37;;;15.90;99.90;;;;;;5072300;28;20431;-77
2021/05/11 02:37:36;;;;;;;7.73;7.10;;;15.90;99.90;;;;;;5064178;28;20431;-78
2021/05/11 02:40:03;;;;;;;9.30;8.50;;;15.90;99.90;;;;;;5070561;28;20429;-78
2021/05/11 02:42:29;;;;;;;9.30;8.40;;;15.90;99.90;;;;;;5069902;28;20206;-78
2021/05/11 02:44:56;;;;;;;7.20;6.60;;;15.90;99.90;;;;;;5072457;28;20456;-78
2021/05/11 02:47:22;;;;;;;8.70;7.80;;;15.90;99.90;;;;;;5049281;28;20812;-78
2021/05/11 02:49:49;;;;;;;8.17;7.50;;;15.90;99.90;;;;;;5062075;28;20451;-78
2021/05/11 02:52:15;;;;;;;6.80;6.30;;;15.90;99.90;;;;;;5058591;28;20183;-77
2021/05/11 02:54:41;;;;;;;8.20;7.50;;;15.90;99.90;;;;;;5052818;28;20580;-78
2021/05/11 02:57:08;;;;;;;8.70;7.10;;;15.90;99.90;;;;;;5066804;28;20948;-78
2021/05/11 02:59:33;;;;;;;10.03;7.00;;;15.90;99.90;;;;;;5071602;28;20428;-78
2021/05/11 03:02:00;;;;;;;14.57;13.00;;;15.90;99.90;;;;;;5053845;28;20440;-78
2021/05/11 03:04:25;;;;;;;8.87;8.07;;;15.90;99.90;;;;;;5069583;28;20201;-78
2021/05/11 03:06:56;;;;;;;8.67;7.87;;;15.90;99.90;;;;;;5057698;28;20949;-78
2021/05/11 03:09:22;;;;;;;7.47;6.77;;;15.90;99.90;;;;;;5060018;28;20568;-77
2021/05/11 03:11:48;;;;;;;37.90;32.90;;;15.90;99.90;;;;;;5057923;28;20452;-78
2021/05/11 03:14:13;;;;;;;27.40;23.03;;;15.80;99.90;;;;;;5041946;28;20445;-77
2021/05/11 03:16:43;;;;;;;18.80;16.17;;;15.70;99.90;;;;;;5055287;28;20174;-78
2021/05/11 03:19:08;;;;;;;18.97;17.07;;;15.70;99.90;;;;;;5060882;28;20181;-78
2021/05/11 03:21:34;;;;;;;10.00;9.10;;;15.80;99.90;;;;;;5069391;28;20436;-78
2021/05/11 03:24:00;;;;;;;8.40;7.57;;;15.80;99.90;;;;;;5058386;28;20701;-78
2021/05/11 03:26:25;;;;;;;8.70;7.97;;;15.60;99.90;;;;;;5055914;28;20429;-78
2021/05/11 03:28:51;;;;;;;9.03;8.23;;;15.30;99.90;;;;;;5066911;28;20192;-78
2021/05/11 03:31:16;;;;;;;8.70;7.90;;;15.10;99.90;;;;;;5039696;28;20212;-77
2021/05/11 03:33:42;;;;;;;9.60;7.47;;;15.10;99.90;;;;;;5049712;28;20591;-77
2021/05/11 03:36:08;;;;;;;9.17;5.97;;;15.00;99.90;;;;;;5068819;28;20226;-77
2021/05/11 03:38:34;;;;;;;5.43;4.93;;;15.10;99.90;;;;;;5062862;28;20204;-78
2021/05/11 03:41:00;;;;;;;6.87;5.30;;;15.00;99.90;;;;;;5063715;28;20217;-78
2021/05/11 03:43:32;;;;;;;8.53;5.87;;;15.00;99.90;;;;;;5065282;28;20174;-78
2021/05/11 03:46:01;;;;;;;4.90;4.00;;;15.10;99.90;;;;;;5072109;28;20463;-77
2021/05/11 03:48:27;;;;;;;8.47;4.27;;;15.00;99.90;;;;;;5055339;28;20441;-76
2021/05/11 03:50:53;;;;;;;4.40;4.00;;;15.10;99.90;;;;;;5067151;28;20894;-78
2021/05/11 03:53:18;;;;;;;4.93;4.33;;;15.20;99.90;;;;;;5065087;28;20167;-78
2021/05/11 03:55:44;;;;;;;4.97;4.47;;;15.20;99.90;;;;;;5062514;28;20247;-78
2021/05/11 03:58:09;;;;;;;6.40;4.70;;;15.20;99.90;;;;;;5056139;28;20183;-78
2021/05/11 04:00:35;;;;;;;7.10;5.03;;;15.30;99.90;;;;;;5065803;28;20185;-78
2021/05/11 04:03:00;;;;;;;5.70;4.33;;;15.20;99.90;;;;;;5053202;28;20189;-78
2021/05/11 04:05:26;;;;;;;5.83;5.20;;;15.10;99.90;;;;;;5072108;28;20622;-78
2021/05/11 04:07:56;;;;;;;6.90;5.60;;;15.00;99.90;;;;;;5068379;28;20656;-79
2021/05/11 04:18:12;;;;;;;7.00;5.27;;;15.10;99.90;;;;;;5071108;28;20419;-77
2021/05/11 04:20:37;;;;;;;6.67;5.00;;;15.20;99.90;;;;;;5066857;28;20426;-77
2021/05/11 04:23:03;;;;;;;6.80;4.80;;;15.20;99.90;;;;;;5060969;28;20210;-77
2021/05/11 04:25:28;;;;;;;7.17;5.37;;;15.20;99.90;;;;;;5066441;28;20197;-78
2021/05/11 04:27:54;;;;;;;6.13;4.60;;;15.20;99.90;;;;;;5052283;28;20182;-78
2021/05/11 04:30:20;;;;;;;12.70;6.30;;;15.10;99.90;;;;;;5059475;28;20217;-77
2021/05/11 04:32:46;;;;;;;5.33;4.87;;;14.90;99.90;;;;;;5070450;28;20181;-78
2021/05/11 04:35:12;;;;;;;8.00;5.47;;;14.70;99.90;;;;;;5070686;28;20448;-77
2021/05/11 04:37:38;;;;;;;7.53;5.10;;;14.80;99.90;;;;;;5055654;28;20179;-78
2021/05/11 04:40:04;;;;;;;6.97;4.90;;;14.80;99.90;;;;;;5037159;28;20995;-78
2021/05/11 04:42:29;;;;;;;9.60;8.20;;;14.90;99.90;;;;;;5069082;28;20189;-78
2021/05/11 04:44:58;;;;;;;5.80;5.30;;;15.00;99.90;;;;;;5065924;28;20452;-78
2021/05/11 04:47:46;;;;;;;5.40;4.83;;;15.10;99.90;;;;;;5046485;28;20216;-79
2021/05/11 04:50:22;;;;;;;4.73;4.23;;;15.10;99.90;;;;;;5043205;28;20491;-77
2021/05/11 04:52:48;;;;;;;5.53;4.50;;;15.30;99.90;;;;;;5059415;28;20513;-77
2021/05/11 04:55:15;;;;;;;5.93;4.10;;;15.30;99.90;;;;;;5079221;28;20440;-78
2021/05/11 04:57:40;;;;;;;6.60;4.47;;;15.30;99.90;;;;;;5055694;28;20451;-78
2021/05/11 05:00:08;;;;;;;4.97;4.13;;;15.30;99.90;;;;;;5071541;28;20436;-79
2021/05/11 05:02:36;;;;;;;6.27;4.57;;;15.40;99.90;;;;;;5063435;28;20194;-77
2021/05/11 05:05:02;;;;;;;4.90;3.80;;;15.40;99.90;;;;;;5067945;28;20453;-78
2021/05/11 05:07:27;;;;;;;7.27;4.80;;;15.50;99.90;;;;;;5047275;28;20439;-78
2021/05/11 05:09:53;;;;;;;5.97;5.27;;;15.50;99.90;;;;;;5071502;28;20220;-79
2021/05/11 05:12:18;;;;;;;5.93;4.17;;;15.50;99.90;;;;;;5073224;28;20179;-78
2021/05/11 05:14:44;;;;;;;5.23;4.10;;;15.50;99.90;;;;;;5056709;28;20573;-78
2021/05/11 05:17:10;;;;;;;5.53;3.20;;;15.60;99.90;;;;;;5067556;28;21189;-79
2021/05/11 05:19:35;;;;;;;4.60;3.67;;;15.60;99.90;;;;;;5065213;28;20528;-78
2021/05/11 05:22:02;;;;;;;4.53;4.13;;;15.70;99.90;;;;;;5065525;28;20189;-78
2021/05/11 05:24:33;;;;;;;3.60;3.30;;;15.70;99.90;;;;;;5064428;28;20198;-78
2021/05/11 05:27:03;;;;;;;4.40;3.03;;;15.70;99.90;;;;;;5073413;28;20440;-78
2021/05/11 05:29:29;;;;;;;7.83;3.60;;;15.80;99.90;;;;;;5065791;28;20518;-79
2021/05/11 05:31:55;;;;;;;9.73;3.23;;;15.70;99.90;;;;;;5057221;28;20498;-79
2021/05/11 05:34:20;;;;;;;4.60;4.20;;;15.80;99.90;;;;;;5054854;28;20915;-78
2021/05/11 05:36:46;;;;;;;7.50;5.60;;;15.80;99.90;;;;;;5036605;28;20178;-78
2021/05/11 05:39:11;;;;;;;8.40;6.17;;;15.70;99.90;;;;;;5058130;28;20190;-78
2021/05/11 05:41:37;;;;;;;11.10;6.40;;;15.70;99.90;;;;;;5073636;28;20186;-78
2021/05/11 05:44:03;;;;;;;9.17;5.97;;;15.70;99.90;;;;;;5070662;28;20186;-79
2021/05/11 05:46:28;;;;;;;5.23;4.73;;;15.70;99.90;;;;;;5044598;28;20198;-79
2021/05/11 05:48:54;;;;;;;6.50;5.30;;;15.80;99.90;;;;;;5048228;28;20231;-78
2021/05/11 05:51:20;;;;;;;6.30;4.40;;;15.80;99.90;;;;;;5059129;28;20257;-79
2021/05/11 05:53:46;;;;;;;8.37;5.23;;;15.80;99.90;;;;;;5074877;28;20163;-78
2021/05/11 05:56:16;;;;;;;5.90;4.23;;;15.90;99.90;;;;;;5063615;28;20458;-79
2021/05/11 05:58:41;;;;;;;5.27;3.90;;;16.00;99.90;;;;;;5065659;28;20644;-78
2021/05/11 06:01:08;;;;;;;4.70;3.73;;;16.00;99.90;;;;;;5055208;28;20420;-79
2021/05/11 06:03:51;;;;;;;4.33;3.47;;;16.10;99.90;;;;;;5061719;28;20175;-78
2021/05/11 06:06:18;;;;;;;7.60;4.27;;;16.20;99.90;;;;;;5057719;28;20510;-78
2021/05/11 06:08:44;;;;;;;4.93;4.00;;;16.20;99.90;;;;;;5074752;28;20479;-78
2021/05/11 06:13:43;;;;;;;11.63;4.60;;;16.10;99.90;;;;;;5074182;28;20439;-78
2021/05/11 06:18:53;;;;;;;5.70;4.10;;;16.20;99.90;;;;;;5066871;28;20506;-78
2021/05/11 06:21:19;;;;;;;7.50;4.10;;;16.30;99.90;;;;;;5071670;28;20433;-78
2021/05/11 06:23:45;;;;;;;6.20;4.03;;;16.40;99.90;;;;;;5069185;28;20201;-78
2021/05/11 06:26:12;;;;;;;4.33;3.97;;;16.50;99.90;;;;;;5055573;28;20190;-79
2021/05/11 06:28:40;;;;;;;7.13;4.40;;;16.50;99.90;;;;;;5069355;28;20178;-78
2021/05/11 06:31:06;;;;;;;4.80;4.40;;;16.60;99.90;;;;;;5070965;28;20470;-78
2021/05/11 06:33:32;;;;;;;4.60;3.97;;;16.60;99.90;;;;;;5054970;28;20456;-78
2021/05/11 06:35:57;;;;;;;5.13;3.63;;;16.60;99.90;;;;;;5069678;28;20452;-78
2021/05/11 06:38:23;;;;;;;6.23;4.10;;;16.60;99.90;;;;;;5058094;28;20253;-79
2021/05/11 06:40:48;;;;;;;5.47;4.73;;;16.60;99.90;;;;;;5037256;28;20644;-79
2021/05/11 06:43:19;;;;;;;6.10;3.43;;;16.70;99.90;;;;;;5094058;28;20739;-78
2021/05/11 06:49:28;;;;;;;7.07;3.30;;;16.70;99.90;;;;;;5037826;28;20818;-78
2021/05/11 06:53:52;;;;;;;6.20;2.97;;;16.70;99.90;;;;;;5073737;28;20440;-78
2021/05/11 06:56:21;;;;;;;6.07;4.60;;;16.70;99.90;;;;;;5069765;28;20435;-78
2021/05/11 06:58:47;;;;;;;7.70;3.33;;;16.80;99.90;;;;;;5053833;28;20440;-78
2021/05/11 07:01:16;;;;;;;6.83;3.43;;;16.80;99.90;;;;;;5053547;28;20563;-79
2021/05/11 07:03:41;;;;;;;4.30;2.87;;;16.90;99.90;;;;;;5058132;28;20832;-78
2021/05/11 07:06:07;;;;;;;8.33;3.57;;;17.10;99.90;;;;;;5052932;28;20445;-78
2021/05/11 07:11:07;;;;;;;4.53;3.07;;;17.40;99.90;;;;;;5066208;28;20474;-79
2021/05/11 07:13:33;;;;;;;7.73;3.27;;;17.50;99.90;;;;;;5037553;28;20957;-79
2021/05/11 07:15:58;;;;;;;7.63;3.37;;;17.60;99.90;;;;;;5061702;28;20464;-79
2021/05/11 07:18:24;;;;;;;3.73;2.20;;;17.70;99.90;;;;;;5059631;28;20173;-78
2021/05/11 07:20:57;;;;;;;6.77;3.43;;;17.70;99.90;;;;;;5062935;28;20189;-78
2021/05/11 07:23:23;;;;;;;4.50;2.23;;;17.70;99.90;;;;;;5075183;28;20470;-79
2021/05/11 07:31:05;;;;;;;5.10;3.00;;;17.70;99.90;;;;;;5072913;28;20464;-79
2021/05/11 07:33:39;;;;;;;3.20;2.00;;;17.70;99.90;;;;;;5055319;28;20433;-79
2021/05/11 07:36:05;;;;;;;4.63;2.53;;;17.70;99.90;;;;;;5071733;28;20456;-78
2021/05/11 07:38:31;;;;;;;5.30;2.37;;;17.70;99.90;;;;;;5043745;28;20779;-79
2021/05/11 07:40:57;;;;;;;4.70;2.63;;;17.70;99.90;;;;;;5048875;28;20530;-78
2021/05/11 07:43:25;;;;;;;9.60;2.60;;;17.70;99.90;;;;;;5073997;28;20464;-79
2021/05/11 07:48:56;;;;;;;6.47;3.80;;;17.70;99.90;;;;;;5068980;28;20429;-78
2021/05/11 08:17:44;;;;;;;15.53;12.33;;;17.70;99.90;;;;;;5056459;28;20425;-79
2021/05/11 08:20:33;;;;;;;15.87;12.30;;;17.60;99.90;;;;;;5056606;28;20301;-79
2021/05/11 08:28:19;;;;;;;7.83;3.20;;;17.70;99.90;;;;;;5075122;28;20443;-78
2021/05/11 08:30:45;;;;;;;3.20;2.60;;;17.90;99.90;;;;;;5074341;28;20460;-79
2021/05/11 08:33:11;;;;;;;2.93;2.10;;;17.80;99.90;;;;;;5075330;28;20166;-78
2021/05/11 08:35:36;;;;;;;7.17;2.47;;;17.60;99.90;;;;;;5072282;28;20243;-79
2021/05/11 08:38:02;;;;;;;6.40;2.37;;;17.50;99.90;;;;;;5076229;28;20775;-78
2021/05/11 08:40:28;;;;;;;5.40;2.43;;;17.40;99.90;;;;;;5055769;28;20272;-78
2021/05/11 08:42:53;;;;;;;4.70;2.07;;;17.50;99.90;;;;;;5049307;28;20186;-79
2021/05/11 08:45:19;;;;;;;4.60;2.70;;;17.60;99.90;;;;;;5075422;28;20208;-79
2021/05/11 08:47:52;;;;;;;5.93;2.90;;;17.70;99.90;;;;;;5074739;28;20190;-79
2021/05/11 08:50:22;;;;;;;3.30;2.40;;;17.70;99.90;;;;;;5072312;28;20456;-79
2021/05/11 08:55:34;;;;;;;4.50;2.60;;;17.80;99.90;;;;;;5069125;28;20475;-78
2021/05/11 09:09:14;;;;;;;7.20;3.40;;;18.00;99.90;;;;;;5078018;28;20404;-79
2021/05/11 09:25:35;;;;;;;6.17;3.20;;;19.90;99.90;;;;;;5061076;28;20460;-80
2021/05/11 09:28:29;;;;;;;4.10;2.57;;;20.50;99.90;;;;;;5064766;28;20443;-80
2021/05/11 09:33:34;;;;;;;7.07;3.07;;;21.10;99.90;;;;;;5053826;28;20445;-80
2021/05/11 10:48:21;;;;;;;8.70;4.60;;;20.90;99.90;;;;;;5053930;28;20433;-77
2021/05/11 10:50:58;;;;;;;3.80;3.40;;;21.30;99.90;;;;;;5053162;28;20542;-77
2021/05/11 10:53:39;;;;;;;8.50;4.77;;;21.80;99.90;;;;;;5053347;28;20495;-77
2021/05/11 10:56:31;;;;;;;7.87;3.80;;;22.00;99.90;;;;;;5035509;28;20429;-78
2021/05/11 11:01:37;;;;;;;6.07;3.67;;;22.30;99.90;;;;;;5053349;28;20417;-78
2021/05/11 11:04:16;;;;;;;4.87;4.37;;;22.30;99.90;;;;;;5053149;28;20405;-76
2021/05/11 11:07:00;;;;;;;5.60;4.80;;;22.20;99.90;;;;;;5058607;28;20170;-77
2021/05/11 11:09:27;;;;;;;7.53;5.07;;;21.80;99.90;;;;;;5054728;28;20547;-77
2021/05/11 11:11:53;;;;;;;5.80;4.93;;;21.40;99.90;;;;;;5061844;28;20422;-77
2021/05/11 11:14:19;;;;;;;8.83;6.50;;;21.40;99.90;;;;;;5062526;28;20772;-76
2021/05/11 11:16:45;;;;;;;6.10;5.60;;;21.30;99.90;;;;;;5071500;28;20496;-77
2021/05/11 11:19:12;;;;;;;6.80;6.10;;;21.20;99.90;;;;;;5056535;28;20508;-76
2021/05/11 11:21:49;;;;;;;8.27;6.50;;;21.20;99.90;;;;;;5055017;28;20424;-76
2021/05/11 11:24:36;;;;;;;7.40;5.20;;;21.10;99.90;;;;;;5064656;28;20502;-78
2021/05/11 11:27:02;;;;;;;6.77;5.73;;;21.00;99.90;;;;;;5062549;28;20456;-77
2021/05/11 11:29:28;;;;;;;12.03;6.30;;;20.90;99.90;;;;;;5058713;28;20482;-78
2021/05/11 11:31:55;;;;;;;6.47;5.77;;;20.80;99.90;;;;;;5054648;28;20946;-76
2021/05/11 11:34:34;;;;;;;6.80;6.20;;;20.70;99.90;;;;;;5060700;28;20214;-76
2021/05/11 11:37:09;;;;;;;6.93;6.23;;;20.60;99.90;;;;;;5058972;28;20427;-76
2021/05/11 11:39:42;;;;;;;5.73;5.13;;;20.40;99.90;;;;;;5071460;28;20457;-77
2021/05/11 11:42:33;;;;;;;8.27;5.40;;;20.30;99.90;;;;;;5066049;28;20494;-76
2021/05/11 11:45:02;;;;;;;6.10;5.20;;;20.10;99.90;;;;;;5055877;28;20455;-76
2021/05/11 11:47:29;;;;;;;7.73;6.03;;;19.90;99.90;;;;;;5052117;28;20490;-76
2021/05/11 11:50:00;;;;;;;5.53;4.30;;;19.70;99.90;;;;;;5054251;28;20460;-76
2021/05/11 11:58:00;;;;;;;6.63;5.23;;;19.40;99.90;;;;;;5076370;28;20971;-78
2021/05/11 12:00:29;;;;;;;6.33;5.10;;;19.30;99.90;;;;;;5070617;28;20425;-79
2021/05/11 12:03:09;;;;;;;5.70;4.77;;;19.10;99.90;;;;;;5055404;28;20202;-79
2021/05/11 12:05:36;;;;;;;6.37;4.50;;;19.00;99.90;;;;;;5068644;28;20505;-79
2021/05/11 12:10:52;;;;;;;9.23;5.37;;;19.00;99.90;;;;;;5074535;28;20789;-78
2021/05/11 12:13:21;;;;;;;7.53;6.13;;;18.80;99.90;;;;;;5067828;28;20454;-78
2021/05/11 12:16:10;;;;;;;8.47;5.90;;;18.90;99.90;;;;;;5073053;28;20428;-78
2021/05/11 12:18:36;;;;;;;8.40;6.70;;;18.60;99.90;;;;;;5050404;28;20787;-79
2021/05/11 12:21:04;;;;;;;11.90;6.57;;;18.40;99.90;;;;;;5052311;28;20926;-79
2021/05/11 12:23:30;;;;;;;10.20;6.23;;;18.60;99.90;;;;;;5055053;28;20405;-78
2021/05/11 12:26:06;;;;;;;7.90;7.07;;;18.60;99.90;;;;;;5052281;28;20425;-78
2021/05/11 12:28:40;;;;;;;8.03;6.57;;;18.50;99.90;;;;;;5052300;28;20163;-78
2021/05/11 12:31:07;;;;;;;7.40;6.00;;;18.60;99.90;;;;;;5052138;28;20958;-79
2021/05/11 12:33:43;;;;;;;7.23;5.93;;;18.80;99.90;;;;;;5037308;28;20421;-79
2021/05/11 12:36:24;;;;;;;7.87;5.70;;;18.80;99.90;;;;;;5037431;28;20460;-78
2021/05/11 12:38:51;;;;;;;6.40;5.73;;;18.80;99.90;;;;;;5036426;28;20416;-80
2021/05/11 12:41:30;;;;;;;9.40;7.00;;;18.70;99.90;;;;;;5064624;28;20421;-78
2021/05/11 12:43:56;;;;;;;10.53;7.20;;;18.60;99.90;;;;;;5074560;28;20760;-78
2021/05/11 12:46:27;;;;;;;8.77;7.20;;;18.60;99.90;;;;;;5047345;28;20517;-78
2021/05/11 12:49:03;;;;;;;7.60;6.60;;;18.70;99.90;;;;;;5053681;28;20159;-78
2021/05/11 12:51:30;;;;;;;8.90;6.93;;;18.70;99.90;;;;;;5053230;28;20419;-78
2021/05/11 12:53:58;;;;;;;8.23;7.07;;;18.60;99.90;;;;;;5036096;28;20455;-78
2021/05/11 12:59:12;;;;;;;8.53;7.73;;;18.20;99.90;;;;;;5056008;28;20942;-78
2021/05/11 13:21:02;;;;;;;5.57;4.93;;;18.60;99.90;;;;;;5055435;28;20991;-78
2021/05/11 13:26:16;;;;;;;10.00;7.33;;;18.90;99.90;;;;;;5059867;28;20519;-78
2021/05/11 13:28:53;;;;;;;10.50;7.07;;;19.10;99.90;;;;;;5059140;28;20409;-80
2021/05/11 13:31:25;;;;;;;8.20;6.50;;;19.20;99.90;;;;;;5040881;28;20452;-77
2021/05/11 13:36:28;;;;;;;6.83;6.20;;;19.00;99.90;;;;;;5054944;28;20420;-78
2021/05/11 13:38:54;;;;;;;7.80;5.83;;;18.80;99.90;;;;;;5056843;28;20416;-78
2021/05/11 13:41:19;;;;;;;8.83;6.40;;;18.80;99.90;;;;;;5054640;28;20651;-78
2021/05/11 13:43:45;;;;;;;7.30;5.90;;;18.40;99.90;;;;;;5039032;28;20181;-78
2021/05/11 13:46:10;;;;;;;7.20;6.50;;;18.30;99.90;;;;;;5058022;28;20206;-77
2021/05/11 13:48:41;;;;;;;8.90;7.27;;;18.20;99.90;;;;;;5041484;28;20660;-79
2021/05/11 13:53:43;;;;;;;11.77;7.50;;;18.20;99.90;;;;;;5058047;28;20401;-79
2021/05/11 14:04:01;;;;;;;6.00;5.20;;;18.30;99.90;;;;;;5064231;28;20423;-79
2021/05/11 14:06:27;;;;;;;5.73;4.70;;;17.90;99.90;;;;;;5076965;28;20421;-77
2021/05/11 14:08:53;;;;;;;7.70;4.57;;;18.00;99.90;;;;;;5076381;28;20929;-79
2021/05/11 14:11:18;;;;;;;8.13;3.90;;;18.20;99.90;;;;;;5076331;28;20205;-79
2021/05/11 14:13:44;;;;;;;4.63;3.47;;;18.20;99.90;;;;;;5076555;28;20773;-78
2021/05/11 14:16:10;;;;;;;5.83;4.10;;;18.20;99.90;;;;;;5077317;28;20209;-79
2021/05/11 14:18:35;;;;;;;6.87;4.43;;;18.20;99.90;;;;;;5060176;28;20181;-79
2021/05/11 14:21:01;;;;;;;9.80;4.80;;;18.20;99.90;;;;;;5075996;28;20236;-79
2021/05/11 14:23:27;;;;;;;4.27;3.87;;;18.20;99.90;;;;;;5075461;28;20261;-78
2021/05/11 14:25:53;;;;;;;6.83;4.83;;;18.20;99.90;;;;;;5078033;28;20197;-79
2021/05/11 14:28:18;;;;;;;6.80;4.57;;;18.10;99.90;;;;;;5077495;28;20416;-79
2021/05/11 14:30:44;;;;;;;6.43;5.70;;;18.20;99.90;;;;;;5077787;28;20214;-78
2021/05/11 14:33:09;;;;;;;10.00;5.40;;;18.10;99.90;;;;;;5087552;28;20256;-79
2021/05/11 14:35:35;;;;;;;10.37;7.40;;;18.20;99.90;;;;;;5093722;28;20900;-80
2021/05/11 14:38:01;;;;;;;10.10;6.87;;;18.20;99.90;;;;;;5057838;28;20175;-79
2021/05/11 14:40:27;;;;;;;8.70;7.77;;;18.20;99.90;;;;;;5038845;28;20178;-78
2021/05/11 14:42:53;;;;;;;6.63;6.03;;;18.30;99.90;;;;;;5057257;28;20405;-77
2021/05/11 14:45:23;;;;;;;7.87;6.60;;;18.20;99.90;;;;;;5039879;28;20187;-79
2021/05/11 14:47:49;;;;;;;8.80;6.00;;;18.20;99.90;;;;;;5039842;28;20911;-78
2021/05/11 14:50:19;;;;;;;7.50;5.90;;;18.20;99.90;;;;;;5039135;28;20511;-78
2021/05/11 14:52:45;;;;;;;7.70;5.30;;;18.20;99.90;;;;;;5048116;28;20257;-79
2021/05/11 14:55:13;;;;;;;7.53;6.47;;;18.20;99.90;;;;;;5077457;28;20448;-79
2021/05/11 14:57:40;;;;;;;7.87;7.17;;;18.30;99.90;;;;;;5077318;28;20632;-79
2021/05/11 15:00:07;;;;;;;6.60;6.00;;;18.40;99.90;;;;;;5058775;28;20412;-80
2021/05/11 15:02:34;;;;;;;7.93;6.63;;;18.50;99.90;;;;;;5075545;28;20506;-79
2021/05/11 15:05:00;;;;;;;7.80;6.30;;;18.50;99.90;;;;;;5075747;28;20454;-79
2021/05/11 15:07:25;;;;;;;8.30;7.07;;;18.60;99.90;;;;;;5060615;28;20512;-79
2021/05/11 15:09:51;;;;;;;9.43;7.00;;;18.60;99.90;;;;;;5041995;28;20656;-78
2021/05/11 15:12:16;;;;;;;7.97;5.30;;;18.60;99.90;;;;;;5044365;28;20167;-79
2021/05/11 15:14:42;;;;;;;7.13;6.43;;;18.80;99.90;;;;;;5049216;28;20321;-79
2021/05/11 15:19:58;;;;;;;11.23;5.93;;;18.90;99.90;;;;;;5033461;28;20245;-79
2021/05/11 15:22:25;;;;;;;6.10;5.53;;;18.90;99.90;;;;;;5046824;28;20457;-79
2021/05/11 15:24:51;;;;;;;7.30;5.50;;;18.80;99.90;;;;;;5051644;28;20433;-79
2021/05/11 15:27:18;;;;;;;8.13;6.00;;;18.80;99.90;;;;;;5072480;28;20417;-76
2021/05/11 15:29:44;;;;;;;7.07;5.80;;;18.80;99.90;;;;;;5038082;28;20461;-79
2021/05/11 15:32:43;;;;;;;7.00;5.57;;;18.80;99.90;;;;;;5038823;28;20497;-78
2021/05/11 15:35:14;;;;;;;6.77;5.57;;;18.80;99.90;;;;;;5038707;28;20282;-79
2021/05/11 15:37:41;;;;;;;6.77;6.10;;;18.70;99.90;;;;;;5043840;28;20420;-79
2021/05/11 15:40:09;;;;;;;6.43;5.63;;;18.60;99.90;;;;;;5059325;28;20412;-78
2021/05/11 15:42:35;;;;;;;6.90;6.17;;;18.60;99.90;;;;;;5044734;28;20499;-79
2021/05/11 15:45:01;;;;;;;7.30;5.60;;;18.60;99.90;;;;;;5075165;28;20519;-79
2021/05/11 15:47:27;;;;;;;5.90;5.30;;;18.50;99.90;;;;;;5072928;28;20439;-79
2021/05/11 15:49:52;;;;;;;7.70;6.37;;;18.50;99.90;;;;;;5075209;28;20456;-79
2021/05/11 15:52:18;;;;;;;8.97;7.30;;;18.50;99.90;;;;;;5073886;28;20647;-79
2021/05/11 15:54:44;;;;;;;7.67;6.93;;;18.40;99.90;;;;;;5060334;28;20286;-77
2021/05/11 15:57:09;;;;;;;8.40;6.27;;;18.30;99.90;;;;;;5058501;28;20245;-79
2021/05/11 15:59:35;;;;;;;8.73;7.00;;;18.30;99.90;;;;;;5056541;28;20186;-78
2021/05/11 16:02:01;;;;;;;9.10;7.90;;;18.20;99.90;;;;;;5061500;28;20178;-78
2021/05/11 16:04:27;;;;;;;7.57;6.23;;;18.00;99.90;;;;;;5074136;28;20562;-79
2021/05/11 16:06:53;;;;;;;9.03;7.17;;;18.10;99.90;;;;;;5071030;28;20594;-78
2021/05/11 16:09:19;;;;;;;8.07;7.33;;;18.00;99.90;;;;;;5071374;28;20437;-77
2021/05/11 16:11:44;;;;;;;8.20;6.27;;;18.00;99.90;;;;;;5062501;28;20408;-78
2021/05/11 16:14:10;;;;;;;9.93;6.47;;;17.80;99.90;;;;;;5063670;28;20190;-79
2021/05/11 16:16:36;;;;;;;6.87;6.17;;;17.90;99.90;;;;;;5039001;28;20174;-78
2021/05/11 16:19:01;;;;;;;8.30;7.07;;;17.90;99.90;;;;;;5057160;28;20177;-79
2021/05/11 16:21:27;;;;;;;11.53;6.97;;;17.90;99.90;;;;;;5043185;28;20178;-78
2021/05/11 16:23:56;;;;;;;8.13;6.70;;;17.80;99.90;;;;;;5073816;28;20178;-78
2021/05/11 16:26:24;;;;;;;9.60;6.83;;;17.80;99.90;;;;;;5074372;28;20171;-79
2021/05/11 16:28:49;;;;;;;6.93;6.23;;;17.70;99.90;;;;;;5073149;28;20430;-79
2021/05/11 16:31:16;;;;;;;7.53;6.63;;;17.60;99.90;;;;;;5056138;28;20492;-79
2021/05/11 16:33:42;;;;;;;11.17;7.80;;;17.70;99.90;;;;;;5069717;28;20204;-79
2021/05/11 16:36:07;;;;;;;11.10;6.97;;;17.60;99.90;;;;;;5056033;28;20432;-78
2021/05/11 16:38:33;;;;;;;8.30;7.00;;;17.50;99.90;;;;;;5076227;28;20182;-79
2021/05/11 16:40:58;;;;;;;6.77;6.10;;;17.40;99.90;;;;;;5069445;28;20178;-79
2021/05/11 16:43:24;;;;;;;9.53;6.10;;;17.40;99.90;;;;;;5043344;28;20191;-78
2021/05/11 16:45:50;;;;;;;10.43;7.00;;;17.40;99.90;;;;;;5042390;28;20284;-77
2021/05/11 16:48:16;;;;;;;9.40;7.23;;;17.40;99.90;;;;;;5072911;28;20185;-79
2021/05/11 16:50:43;;;;;;;8.60;6.67;;;17.30;99.90;;;;;;5064000;28;20528;-79
2021/05/11 16:53:14;;;;;;;9.73;8.40;;;17.30;99.90;;;;;;5054320;28;20419;-79
2021/05/11 16:55:40;;;;;;;11.47;7.43;;;17.20;99.90;;;;;;5071717;28;20476;-78
2021/05/11 16:58:06;;;;;;;10.90;7.23;;;17.20;99.90;;;;;;5043144;28;20424;-77
2021/05/11 17:00:33;;;;;;;7.67;6.97;;;17.10;99.90;;;;;;5055696;28;20166;-78
2021/05/11 17:03:01;;;;;;;10.77;8.97;;;17.10;99.90;;;;;;5074826;28;20451;-79
2021/05/11 17:05:27;;;;;;;9.33;8.23;;;16.90;99.90;;;;;;5064496;28;20444;-78
2021/05/11 17:07:54;;;;;;;10.13;8.53;;;16.90;99.90;;;;;;5054009;28;20462;-78
2021/05/11 17:10:21;;;;;;;9.07;8.00;;;17.00;99.90;;;;;;5053236;28;20448;-78
2021/05/11 17:12:48;;;;;;;10.67;9.57;;;17.00;99.90;;;;;;5064972;28;20487;-79
2021/05/11 17:15:15;;;;;;;12.57;8.43;;;17.00;99.90;;;;;;5059743;28;20437;-79
2021/05/11 17:17:40;;;;;;;10.23;8.70;;;17.00;99.90;;;;;;5041630;28;20440;-80